sensor_id;sensor_type;location;lat;lon;timestamp;temperature;humidity
35381;DHT22;21486;51.916;8.378;2022-10-22T00:00:38;12.00;99.10
35381;DHT22;21486;51.916;8.378;2022-10-22T00:03:04;12.00;99.10
35381;DHT22;21486;51.916;8.378;2022-10-22T00:05:30;12.00;99.20
35381;DHT22;21486;51.916;8.378;2022-10-22T00:07:55;12.00;99.20
35381;DHT22;21486;51.916;8.378;2022-10-22T00:10:21;12.00;99.20
35381;DHT22;21486;51.916;8.378;2022-10-22T00:12:46;12.00;99.10
35381;DHT22;21486;51.916;8.378;2022-10-22T00:15:12;12.00;99.10
35381;DHT22;21486;51.916;8.378;2022-10-22T00:17:37;12.00;99.10
35381;DHT22;21486;51.916;8.378;2022-10-22T00:20:03;12.00;99.10
35381;DHT22;21486;51.916;8.378;2022-10-22T00:22:29;12.00;99.10
35381;DHT22;21486;51.916;8.378;2022-10-22T00:24:55;12.00;99.10
35381;DHT22;21486;51.916;8.378;2022-10-22T00:27:20;12.00;99.10
35381;DHT22;21486;51.916;8.378;2022-10-22T00:29:46;12.00;99.10
35381;DHT22;21486;51.916;8.378;2022-10-22T00:33:03;11.90;98.90
35381;DHT22;21486;51.916;8.378;2022-10-22T00:35:28;11.90;99.20
35381;DHT22;21486;51.916;8.378;2022-10-22T00:37:54;11.90;99.10
35381;DHT22;21486;51.916;8.378;2022-10-22T00:40:20;12.00;99.20
35381;DHT22;21486;51.916;8.378;2022-10-22T00:42:45;11.90;99.00
35381;DHT22;21486;51.916;8.378;2022-10-22T00:45:14;12.00;99.10
35381;DHT22;21486;51.916;8.378;2022-10-22T00:50:16;12.00;99.10
35381;DHT22;21486;51.916;8.378;2022-10-22T00:52:43;12.00;99.10
35381;DHT22;21486;51.916;8.378;2022-10-22T00:55:09;11.90;99.00
35381;DHT22;21486;51.916;8.378;2022-10-22T00:57:35;11.90;99.20
35381;DHT22;21486;51.916;8.378;2022-10-22T01:00:02;12.00;99.00
35381;DHT22;21486;51.916;8.378;2022-10-22T01:02:27;11.90;98.90
35381;DHT22;21486;51.916;8.378;2022-10-22T01:04:53;11.90;98.90
35381;DHT22;21486;51.916;8.378;2022-10-22T01:07:20;11.90;98.90
35381;DHT22;21486;51.916;8.378;2022-10-22T01:12:47;12.00;98.80
35381;DHT22;21486;51.916;8.378;2022-10-22T01:15:23;11.90;98.70
35381;DHT22;21486;51.916;8.378;2022-10-22T01:26:03;11.90;98.70
35381;DHT22;21486;51.916;8.378;2022-10-22T01:28:57;12.00;98.80
35381;DHT22;21486;51.916;8.378;2022-10-22T01:31:28;11.90;98.60
35381;DHT22;21486;51.916;8.378;2022-10-22T01:33:56;11.90;98.60
35381;DHT22;21486;51.916;8.378;2022-10-22T01:36:23;11.90;98.50
35381;DHT22;21486;51.916;8.378;2022-10-22T01:38:50;11.90;98.50
35381;DHT22;21486;51.916;8.378;2022-10-22T01:41:16;12.00;98.60
35381;DHT22;21486;51.916;8.378;2022-10-22T01:43:42;12.00;98.60
35381;DHT22;21486;51.916;8.378;2022-10-22T01:46:09;11.90;98.50
35381;DHT22;21486;51.916;8.378;2022-10-22T01:54:05;11.90;98.40
35381;DHT22;21486;51.916;8.378;2022-10-22T01:59:52;11.90;98.50
35381;DHT22;21486;51.916;8.378;2022-10-22T02:04:49;11.80;98.50
35381;DHT22;21486;51.916;8.378;2022-10-22T02:07:20;11.80;98.50
35381;DHT22;21486;51.916;8.378;2022-10-22T02:09:48;11.80;98.40
35381;DHT22;21486;51.916;8.378;2022-10-22T02:12:16;11.70;98.40
35381;DHT22;21486;51.916;8.378;2022-10-22T02:14:45;11.70;98.30
35381;DHT22;21486;51.916;8.378;2022-10-22T02:17:15;11.70;98.30
35381;DHT22;21486;51.916;8.378;2022-10-22T02:20:05;11.70;98.40
35381;DHT22;21486;51.916;8.378;2022-10-22T02:22:31;11.60;98.30
35381;DHT22;21486;51.916;8.378;2022-10-22T02:24:57;11.60;98.20
35381;DHT22;21486;51.916;8.378;2022-10-22T02:27:28;11.60;98.30
35381;DHT22;21486;51.916;8.378;2022-10-22T02:30:03;11.60;98.30
35381;DHT22;21486;51.916;8.378;2022-10-22T02:32:34;11.50;98.20
35381;DHT22;21486;51.916;8.378;2022-10-22T02:35:03;11.40;98.20
35381;DHT22;21486;51.916;8.378;2022-10-22T02:37:29;11.40;98.30
35381;DHT22;21486;51.916;8.378;2022-10-22T02:39:55;11.40;98.30
35381;DHT22;21486;51.916;8.378;2022-10-22T02:42:25;11.30;98.30
35381;DHT22;21486;51.916;8.378;2022-10-22T02:44:51;11.40;98.20
35381;DHT22;21486;51.916;8.378;2022-10-22T02:47:17;11.30;98.00
35381;DHT22;21486;51.916;8.378;2022-10-22T02:49:42;11.20;98.10
35381;DHT22;21486;51.916;8.378;2022-10-22T02:52:08;11.30;98.20
35381;DHT22;21486;51.916;8.378;2022-10-22T02:54:34;11.20;98.00
35381;DHT22;21486;51.916;8.378;2022-10-22T02:56:59;11.20;98.10
35381;DHT22;21486;51.916;8.378;2022-10-22T02:59:25;11.20;98.30
35381;DHT22;21486;51.916;8.378;2022-10-22T03:01:50;11.20;98.50
35381;DHT22;21486;51.916;8.378;2022-10-22T03:04:16;11.20;98.50
35381;DHT22;21486;51.916;8.378;2022-10-22T03:06:41;11.20;98.60
35381;DHT22;21486;51.916;8.378;2022-10-22T03:09:09;11.20;98.90
35381;DHT22;21486;51.916;8.378;2022-10-22T03:11:34;11.30;99.00
35381;DHT22;21486;51.916;8.378;2022-10-22T03:14:00;11.30;98.80
35381;DHT22;21486;51.916;8.378;2022-10-22T03:16:25;11.20;98.60
35381;DHT22;21486;51.916;8.378;2022-10-22T03:18:51;11.20;98.40
35381;DHT22;21486;51.916;8.378;2022-10-22T03:21:39;11.20;98.50
35381;DHT22;21486;51.916;8.378;2022-10-22T03:24:13;11.20;98.60
35381;DHT22;21486;51.916;8.378;2022-10-22T03:26:41;11.20;98.80
35381;DHT22;21486;51.916;8.378;2022-10-22T03:29:09;11.20;98.70
35381;DHT22;21486;51.916;8.378;2022-10-22T03:31:35;11.20;98.70
35381;DHT22;21486;51.916;8.378;2022-10-22T03:34:01;11.20;98.70
35381;DHT22;21486;51.916;8.378;2022-10-22T03:36:27;11.10;98.60
35381;DHT22;21486;51.916;8.378;2022-10-22T03:38:53;11.20;98.60
35381;DHT22;21486;51.916;8.378;2022-10-22T03:41:18;11.10;98.90
35381;DHT22;21486;51.916;8.378;2022-10-22T03:43:44;11.20;98.90
35381;DHT22;21486;51.916;8.378;2022-10-22T03:46:14;11.10;98.70
35381;DHT22;21486;51.916;8.378;2022-10-22T03:48:40;11.10;98.70
35381;DHT22;21486;51.916;8.378;2022-10-22T03:51:05;11.10;98.90
35381;DHT22;21486;51.916;8.378;2022-10-22T03:53:31;11.10;98.80
35381;DHT22;21486;51.916;8.378;2022-10-22T03:55:56;11.10;98.80
35381;DHT22;21486;51.916;8.378;2022-10-22T03:58:22;11.20;99.20
35381;DHT22;21486;51.916;8.378;2022-10-22T04:00:47;11.20;99.00
35381;DHT22;21486;51.916;8.378;2022-10-22T04:03:13;11.20;98.80
35381;DHT22;21486;51.916;8.378;2022-10-22T04:05:38;11.20;98.80
35381;DHT22;21486;51.916;8.378;2022-10-22T04:08:04;11.20;98.90
35381;DHT22;21486;51.916;8.378;2022-10-22T04:10:30;11.20;99.00
35381;DHT22;21486;51.916;8.378;2022-10-22T04:12:55;11.20;99.00
35381;DHT22;21486;51.916;8.378;2022-10-22T04:15:21;11.20;99.10
35381;DHT22;21486;51.916;8.378;2022-10-22T04:17:46;11.20;99.10
35381;DHT22;21486;51.916;8.378;2022-10-22T04:20:12;11.20;99.00
35381;DHT22;21486;51.916;8.378;2022-10-22T04:22:37;11.20;98.90
35381;DHT22;21486;51.916;8.378;2022-10-22T04:25:04;11.20;98.90
35381;DHT22;21486;51.916;8.378;2022-10-22T04:27:33;11.20;99.20
35381;DHT22;21486;51.916;8.378;2022-10-22T04:29:59;11.20;99.20
35381;DHT22;21486;51.916;8.378;2022-10-22T04:32:26;11.20;99.20
35381;DHT22;21486;51.916;8.378;2022-10-22T04:34:51;11.20;99.20
35381;DHT22;21486;51.916;8.378;2022-10-22T04:37:17;11.20;99.20
35381;DHT22;21486;51.916;8.378;2022-10-22T04:39:42;11.30;99.20
35381;DHT22;21486;51.916;8.378;2022-10-22T04:42:08;11.30;99.30
35381;DHT22;21486;51.916;8.378;2022-10-22T04:44:33;11.30;99.20
35381;DHT22;21486;51.916;8.378;2022-10-22T04:46:59;11.30;99.20
35381;DHT22;21486;51.916;8.378;2022-10-22T04:49:25;11.30;99.20
35381;DHT22;21486;51.916;8.378;2022-10-22T04:51:50;11.40;99.20
35381;DHT22;21486;51.916;8.378;2022-10-22T04:54:16;11.30;99.10
35381;DHT22;21486;51.916;8.378;2022-10-22T04:56:41;11.30;99.10
35381;DHT22;21486;51.916;8.378;2022-10-22T04:59:08;11.30;99.00
35381;DHT22;21486;51.916;8.378;2022-10-22T05:01:37;11.30;99.00
35381;DHT22;21486;51.916;8.378;2022-10-22T05:04:04;11.30;99.00
35381;DHT22;21486;51.916;8.378;2022-10-22T05:06:32;11.20;99.00
35381;DHT22;21486;51.916;8.378;2022-10-22T05:09:01;11.20;99.10
35381;DHT22;21486;51.916;8.378;2022-10-22T05:11:29;11.20;99.10
35381;DHT22;21486;51.916;8.378;2022-10-22T05:13:56;11.10;99.00
35381;DHT22;21486;51.916;8.378;2022-10-22T05:16:23;11.00;99.10
35381;DHT22;21486;51.916;8.378;2022-10-22T05:18:48;11.00;99.10
35381;DHT22;21486;51.916;8.378;2022-10-22T05:21:18;11.00;99.00
35381;DHT22;21486;51.916;8.378;2022-10-22T05:23:45;10.90;98.90
35381;DHT22;21486;51.916;8.378;2022-10-22T05:26:14;10.90;98.90
35381;DHT22;21486;51.916;8.378;2022-10-22T05:28:39;10.80;98.90
35381;DHT22;21486;51.916;8.378;2022-10-22T05:31:07;10.80;99.00
35381;DHT22;21486;51.916;8.378;2022-10-22T05:33:33;10.90;99.20
35381;DHT22;21486;51.916;8.378;2022-10-22T05:35:59;10.90;99.40
35381;DHT22;21486;51.916;8.378;2022-10-22T05:38:25;11.00;99.40
35381;DHT22;21486;51.916;8.378;2022-10-22T05:41:01;11.00;99.40
35381;DHT22;21486;51.916;8.378;2022-10-22T05:43:27;11.10;99.40
35381;DHT22;21486;51.916;8.378;2022-10-22T05:45:53;11.10;99.30
35381;DHT22;21486;51.916;8.378;2022-10-22T05:48:19;11.10;99.20
35381;DHT22;21486;51.916;8.378;2022-10-22T05:50:44;11.00;99.10
35381;DHT22;21486;51.916;8.378;2022-10-22T05:53:18;11.00;99.20
35381;DHT22;21486;51.916;8.378;2022-10-22T05:55:44;11.10;99.20
35381;DHT22;21486;51.916;8.378;2022-10-22T05:58:11;11.10;99.20
35381;DHT22;21486;51.916;8.378;2022-10-22T06:00:37;11.10;99.10
35381;DHT22;21486;51.916;8.378;2022-10-22T06:03:02;11.20;99.20
35381;DHT22;21486;51.916;8.378;2022-10-22T06:05:28;11.10;99.10
35381;DHT22;21486;51.916;8.378;2022-10-22T06:07:55;11.20;99.00
35381;DHT22;21486;51.916;8.378;2022-10-22T06:10:22;11.20;98.90
35381;DHT22;21486;51.916;8.378;2022-10-22T06:12:48;11.20;98.90
35381;DHT22;21486;51.916;8.378;2022-10-22T06:15:15;11.20;98.80
35381;DHT22;21486;51.916;8.378;2022-10-22T06:17:43;11.20;98.80
35381;DHT22;21486;51.916;8.378;2022-10-22T06:20:09;11.20;98.80
35381;DHT22;21486;51.916;8.378;2022-10-22T06:22:34;11.20;98.70
35381;DHT22;21486;51.916;8.378;2022-10-22T06:25:00;11.20;98.80
35381;DHT22;21486;51.916;8.378;2022-10-22T06:27:26;11.20;98.80
35381;DHT22;21486;51.916;8.378;2022-10-22T06:29:51;11.20;98.80
35381;DHT22;21486;51.916;8.378;2022-10-22T06:32:17;11.20;98.80
35381;DHT22;21486;51.916;8.378;2022-10-22T06:34:42;11.20;98.80
35381;DHT22;21486;51.916;8.378;2022-10-22T06:37:09;11.20;98.80
35381;DHT22;21486;51.916;8.378;2022-10-22T06:39:34;11.20;98.70
35381;DHT22;21486;51.916;8.378;2022-10-22T06:42:00;11.30;98.70
35381;DHT22;21486;51.916;8.378;2022-10-22T06:44:26;11.30;98.70
35381;DHT22;21486;51.916;8.378;2022-10-22T06:46:52;11.40;98.70
35381;DHT22;21486;51.916;8.378;2022-10-22T06:49:18;11.50;98.70
35381;DHT22;21486;51.916;8.378;2022-10-22T06:51:44;11.60;98.60
35381;DHT22;21486;51.916;8.378;2022-10-22T06:54:13;11.60;98.50
35381;DHT22;21486;51.916;8.378;2022-10-22T06:56:39;11.70;98.30
35381;DHT22;21486;51.916;8.378;2022-10-22T06:59:04;11.60;98.10
35381;DHT22;21486;51.916;8.378;2022-10-22T07:01:33;11.70;98.10
35381;DHT22;21486;51.916;8.378;2022-10-22T07:03:59;11.70;98.10
35381;DHT22;21486;51.916;8.378;2022-10-22T07:06:26;11.80;98.10
35381;DHT22;21486;51.916;8.378;2022-10-22T07:08:53;11.90;98.00
35381;DHT22;21486;51.916;8.378;2022-10-22T07:11:24;11.90;97.80
35381;DHT22;21486;51.916;8.378;2022-10-22T07:13:52;11.90;97.50
35381;DHT22;21486;51.916;8.378;2022-10-22T07:16:18;12.00;97.60
35381;DHT22;21486;51.916;8.378;2022-10-22T07:18:44;12.00;97.50
35381;DHT22;21486;51.916;8.378;2022-10-22T07:21:11;12.10;97.70
35381;DHT22;21486;51.916;8.378;2022-10-22T07:23:37;12.20;97.50
35381;DHT22;21486;51.916;8.378;2022-10-22T07:26:04;12.20;97.30
35381;DHT22;21486;51.916;8.378;2022-10-22T07:28:32;12.20;97.00
35381;DHT22;21486;51.916;8.378;2022-10-22T07:30:59;12.20;96.90
35381;DHT22;21486;51.916;8.378;2022-10-22T07:33:25;12.30;96.70
35381;DHT22;21486;51.916;8.378;2022-10-22T07:35:55;12.20;96.60
35381;DHT22;21486;51.916;8.378;2022-10-22T07:38:21;12.20;96.80
35381;DHT22;21486;51.916;8.378;2022-10-22T07:40:47;12.20;96.80
35381;DHT22;21486;51.916;8.378;2022-10-22T07:43:12;12.20;96.80
35381;DHT22;21486;51.916;8.378;2022-10-22T07:45:38;12.20;97.00
35381;DHT22;21486;51.916;8.378;2022-10-22T07:48:05;12.30;97.10
35381;DHT22;21486;51.916;8.378;2022-10-22T07:50:31;12.40;97.10
35381;DHT22;21486;51.916;8.378;2022-10-22T07:52:56;12.50;97.20
35381;DHT22;21486;51.916;8.378;2022-10-22T07:55:22;12.60;97.10
35381;DHT22;21486;51.916;8.378;2022-10-22T07:57:47;12.70;96.90
35381;DHT22;21486;51.916;8.378;2022-10-22T08:00:13;12.80;97.00
35381;DHT22;21486;51.916;8.378;2022-10-22T08:02:39;13.00;96.70
35381;DHT22;21486;51.916;8.378;2022-10-22T08:05:05;13.10;96.30
35381;DHT22;21486;51.916;8.378;2022-10-22T08:07:30;13.20;96.20
35381;DHT22;21486;51.916;8.378;2022-10-22T08:09:56;13.30;96.00
35381;DHT22;21486;51.916;8.378;2022-10-22T08:12:22;13.50;95.70
35381;DHT22;21486;51.916;8.378;2022-10-22T08:14:47;13.60;95.40
35381;DHT22;21486;51.916;8.378;2022-10-22T08:17:13;13.80;95.10
35381;DHT22;21486;51.916;8.378;2022-10-22T08:19:39;14.00;95.10
35381;DHT22;21486;51.916;8.378;2022-10-22T08:22:04;14.10;94.80
35381;DHT22;21486;51.916;8.378;2022-10-22T08:24:30;14.30;94.30
35381;DHT22;21486;51.916;8.378;2022-10-22T08:26:55;14.40;93.90
35381;DHT22;21486;51.916;8.378;2022-10-22T08:29:24;14.60;93.70
35381;DHT22;21486;51.916;8.378;2022-10-22T08:31:51;14.70;93.50
35381;DHT22;21486;51.916;8.378;2022-10-22T08:34:16;15.00;92.70
35381;DHT22;21486;51.916;8.378;2022-10-22T08:36:42;15.20;92.20
35381;DHT22;21486;51.916;8.378;2022-10-22T08:39:07;15.50;91.90
35381;DHT22;21486;51.916;8.378;2022-10-22T08:41:35;15.80;91.10
35381;DHT22;21486;51.916;8.378;2022-10-22T08:49:28;17.20;88.00
35381;DHT22;21486;51.916;8.378;2022-10-22T08:51:55;17.30;84.30
35381;DHT22;21486;51.916;8.378;2022-10-22T08:56:49;17.50;85.00
35381;DHT22;21486;51.916;8.378;2022-10-22T08:59:19;17.80;85.20
35381;DHT22;21486;51.916;8.378;2022-10-22T09:01:48;18.00;82.40
35381;DHT22;21486;51.916;8.378;2022-10-22T09:04:17;18.10;82.20
35381;DHT22;21486;51.916;8.378;2022-10-22T09:06:46;17.90;82.60
35381;DHT22;21486;51.916;8.378;2022-10-22T09:09:14;17.60;83.90
35381;DHT22;21486;51.916;8.378;2022-10-22T09:11:42;17.80;84.20
35381;DHT22;21486;51.916;8.378;2022-10-22T09:14:11;18.40;82.00
35381;DHT22;21486;51.916;8.378;2022-10-22T09:16:42;18.90;81.10
35381;DHT22;21486;51.916;8.378;2022-10-22T09:24:27;19.40;77.90
35381;DHT22;21486;51.916;8.378;2022-10-22T09:26:54;19.90;77.30
35381;DHT22;21486;51.916;8.378;2022-10-22T09:29:22;20.00;75.30
35381;DHT22;21486;51.916;8.378;2022-10-22T09:31:49;20.20;74.50
35381;DHT22;21486;51.916;8.378;2022-10-22T09:34:16;20.30;73.00
35381;DHT22;21486;51.916;8.378;2022-10-22T09:36:43;20.80;71.70
35381;DHT22;21486;51.916;8.378;2022-10-22T09:39:23;21.30;70.00
35381;DHT22;21486;51.916;8.378;2022-10-22T09:41:49;21.70;66.80
35381;DHT22;21486;51.916;8.378;2022-10-22T09:44:16;21.70;65.80
35381;DHT22;21486;51.916;8.378;2022-10-22T09:46:41;21.70;65.60
35381;DHT22;21486;51.916;8.378;2022-10-22T09:49:11;21.50;65.90
35381;DHT22;21486;51.916;8.378;2022-10-22T09:54:11;20.90;65.40
35381;DHT22;21486;51.916;8.378;2022-10-22T09:56:38;20.50;68.10
35381;DHT22;21486;51.916;8.378;2022-10-22T09:59:11;19.90;69.40
35381;DHT22;21486;51.916;8.378;2022-10-22T10:01:38;19.80;71.40
35381;DHT22;21486;51.916;8.378;2022-10-22T10:04:06;19.90;71.00
35381;DHT22;21486;51.916;8.378;2022-10-22T10:06:32;20.10;69.90
35381;DHT22;21486;51.916;8.378;2022-10-22T10:08:58;20.20;68.70
35381;DHT22;21486;51.916;8.378;2022-10-22T10:14:12;19.40;69.80
35381;DHT22;21486;51.916;8.378;2022-10-22T10:22:04;19.30;71.20
35381;DHT22;21486;51.916;8.378;2022-10-22T10:29:50;18.70;72.90
35381;DHT22;21486;51.916;8.378;2022-10-22T10:32:23;18.50;73.20
35381;DHT22;21486;51.916;8.378;2022-10-22T10:34:55;18.30;73.40
35381;DHT22;21486;51.916;8.378;2022-10-22T10:37:48;18.20;74.30
35381;DHT22;21486;51.916;8.378;2022-10-22T10:42:38;18.90;74.30
35381;DHT22;21486;51.916;8.378;2022-10-22T10:47:51;20.30;68.50
35381;DHT22;21486;51.916;8.378;2022-10-22T10:50:22;19.90;67.80
35381;DHT22;21486;51.916;8.378;2022-10-22T10:52:52;19.50;69.90
35381;DHT22;21486;51.916;8.378;2022-10-22T10:55:21;19.10;71.10
35381;DHT22;21486;51.916;8.378;2022-10-22T11:00:16;18.40;74.20
35381;DHT22;21486;51.916;8.378;2022-10-22T11:08:26;18.00;77.00
35381;DHT22;21486;51.916;8.378;2022-10-22T11:15:58;17.50;79.80
35381;DHT22;21486;51.916;8.378;2022-10-22T11:18:31;17.40;80.90
35381;DHT22;21486;51.916;8.378;2022-10-22T11:23:31;17.20;82.40
35381;DHT22;21486;51.916;8.378;2022-10-22T11:26:00;17.30;81.70
35381;DHT22;21486;51.916;8.378;2022-10-22T11:28:27;17.40;81.50
35381;DHT22;21486;51.916;8.378;2022-10-22T11:31:00;18.00;79.50
35381;DHT22;21486;51.916;8.378;2022-10-22T11:33:30;18.40;77.60
35381;DHT22;21486;51.916;8.378;2022-10-22T11:35:57;18.60;77.00
35381;DHT22;21486;51.916;8.378;2022-10-22T11:38:24;18.60;75.40
35381;DHT22;21486;51.916;8.378;2022-10-22T11:40:51;18.70;75.30
35381;DHT22;21486;51.916;8.378;2022-10-22T11:43:26;18.70;76.20
35381;DHT22;21486;51.916;8.378;2022-10-22T11:45:56;18.90;75.60
35381;DHT22;21486;51.916;8.378;2022-10-22T11:48:22;18.90;74.90
35381;DHT22;21486;51.916;8.378;2022-10-22T11:50:58;18.70;73.60
35381;DHT22;21486;51.916;8.378;2022-10-22T11:55:52;18.60;73.70
35381;DHT22;21486;51.916;8.378;2022-10-22T12:00:51;18.30;74.30
35381;DHT22;21486;51.916;8.378;2022-10-22T12:03:18;18.10;74.90
35381;DHT22;21486;51.916;8.378;2022-10-22T12:06:00;18.00;75.70
35381;DHT22;21486;51.916;8.378;2022-10-22T12:08:26;17.90;77.10
35381;DHT22;21486;51.916;8.378;2022-10-22T12:16:26;17.40;76.70
35381;DHT22;21486;51.916;8.378;2022-10-22T12:18:57;17.30;78.20
35381;DHT22;21486;51.916;8.378;2022-10-22T12:21:25;17.10;79.50
35381;DHT22;21486;51.916;8.378;2022-10-22T12:23:51;17.00;81.20
35381;DHT22;21486;51.916;8.378;2022-10-22T12:26:21;16.90;81.10
35381;DHT22;21486;51.916;8.378;2022-10-22T12:28:47;16.90;81.30
35381;DHT22;21486;51.916;8.378;2022-10-22T12:31:15;17.00;80.30
35381;DHT22;21486;51.916;8.378;2022-10-22T12:33:41;16.90;80.20
35381;DHT22;21486;51.916;8.378;2022-10-22T12:36:13;17.00;79.60
35381;DHT22;21486;51.916;8.378;2022-10-22T12:38:38;17.10;78.70
35381;DHT22;21486;51.916;8.378;2022-10-22T12:41:11;17.10;78.20
35381;DHT22;21486;51.916;8.378;2022-10-22T12:43:37;17.30;77.80
35381;DHT22;21486;51.916;8.378;2022-10-22T12:46:03;17.40;77.10
35381;DHT22;21486;51.916;8.378;2022-10-22T12:48:30;17.50;76.30
35381;DHT22;21486;51.916;8.378;2022-10-22T12:50:59;17.60;76.60
35381;DHT22;21486;51.916;8.378;2022-10-22T12:53:32;17.80;75.70
35381;DHT22;21486;51.916;8.378;2022-10-22T12:56:03;17.80;75.00
35381;DHT22;21486;51.916;8.378;2022-10-22T12:58:35;17.90;75.00
35381;DHT22;21486;51.916;8.378;2022-10-22T13:01:02;18.00;74.20
35381;DHT22;21486;51.916;8.378;2022-10-22T13:05:53;18.00;73.40
35381;DHT22;21486;51.916;8.378;2022-10-22T13:08:22;18.10;74.10
35381;DHT22;21486;51.916;8.378;2022-10-22T13:10:51;18.10;73.30
35381;DHT22;21486;51.916;8.378;2022-10-22T13:16:18;18.20;72.10
35381;DHT22;21486;51.916;8.378;2022-10-22T13:18:44;18.30;72.40
35381;DHT22;21486;51.916;8.378;2022-10-22T13:21:26;18.30;71.80
35381;DHT22;21486;51.916;8.378;2022-10-22T13:23:53;18.30;70.30
35381;DHT22;21486;51.916;8.378;2022-10-22T13:26:19;18.10;70.50
35381;DHT22;21486;51.916;8.378;2022-10-22T13:28:54;18.00;71.20
35381;DHT22;21486;51.916;8.378;2022-10-22T13:31:22;18.00;70.90
35381;DHT22;21486;51.916;8.378;2022-10-22T13:33:52;18.00;70.90
35381;DHT22;21486;51.916;8.378;2022-10-22T13:36:19;18.00;71.20
35381;DHT22;21486;51.916;8.378;2022-10-22T13:38:44;18.00;71.60
35381;DHT22;21486;51.916;8.378;2022-10-22T13:43:48;18.00;70.90
35381;DHT22;21486;51.916;8.378;2022-10-22T13:46:14;18.00;71.90
35381;DHT22;21486;51.916;8.378;2022-10-22T13:48:39;17.90;70.50
35381;DHT22;21486;51.916;8.378;2022-10-22T13:51:18;17.80;70.30
35381;DHT22;21486;51.916;8.378;2022-10-22T13:53:44;17.70;71.20
35381;DHT22;21486;51.916;8.378;2022-10-22T13:56:12;17.80;70.80
35381;DHT22;21486;51.916;8.378;2022-10-22T13:58:37;17.80;70.70
35381;DHT22;21486;51.916;8.378;2022-10-22T14:01:03;17.70;71.00
35381;DHT22;21486;51.916;8.378;2022-10-22T14:03:33;17.70;70.80
35381;DHT22;21486;51.916;8.378;2022-10-22T14:05:59;17.50;71.80
35381;DHT22;21486;51.916;8.378;2022-10-22T14:08:25;17.50;72.50
35381;DHT22;21486;51.916;8.378;2022-10-22T14:10:51;17.40;72.70
35381;DHT22;21486;51.916;8.378;2022-10-22T14:13:17;17.50;72.50
35381;DHT22;21486;51.916;8.378;2022-10-22T14:15:43;17.50;72.90
35381;DHT22;21486;51.916;8.378;2022-10-22T14:18:10;17.40;73.20
35381;DHT22;21486;51.916;8.378;2022-10-22T14:20:38;17.50;74.10
35381;DHT22;21486;51.916;8.378;2022-10-22T14:23:20;17.40;74.00
35381;DHT22;21486;51.916;8.378;2022-10-22T14:25:45;17.30;74.20
35381;DHT22;21486;51.916;8.378;2022-10-22T14:28:11;17.20;74.50
35381;DHT22;21486;51.916;8.378;2022-10-22T14:30:36;17.20;75.30
35381;DHT22;21486;51.916;8.378;2022-10-22T14:33:07;17.30;74.60
35381;DHT22;21486;51.916;8.378;2022-10-22T14:35:36;17.20;74.70
35381;DHT22;21486;51.916;8.378;2022-10-22T14:38:01;17.30;74.60
35381;DHT22;21486;51.916;8.378;2022-10-22T14:40:27;17.20;74.50
35381;DHT22;21486;51.916;8.378;2022-10-22T14:42:52;17.10;75.00
35381;DHT22;21486;51.916;8.378;2022-10-22T14:45:20;17.20;75.20
35381;DHT22;21486;51.916;8.378;2022-10-22T14:47:45;17.00;76.40
35381;DHT22;21486;51.916;8.378;2022-10-22T14:50:11;17.10;76.10
35381;DHT22;21486;51.916;8.378;2022-10-22T14:52:38;17.00;76.50
35381;DHT22;21486;51.916;8.378;2022-10-22T14:55:03;16.90;77.20
35381;DHT22;21486;51.916;8.378;2022-10-22T14:57:29;16.80;76.50
35381;DHT22;21486;51.916;8.378;2022-10-22T14:59:54;16.90;76.60
35381;DHT22;21486;51.916;8.378;2022-10-22T15:02:20;16.90;76.70
35381;DHT22;21486;51.916;8.378;2022-10-22T15:04:46;16.80;76.70
35381;DHT22;21486;51.916;8.378;2022-10-22T15:07:11;16.70;76.90
35381;DHT22;21486;51.916;8.378;2022-10-22T15:09:37;16.70;77.20
35381;DHT22;21486;51.916;8.378;2022-10-22T15:12:02;16.70;77.00
35381;DHT22;21486;51.916;8.378;2022-10-22T15:14:28;16.70;76.80
35381;DHT22;21486;51.916;8.378;2022-10-22T15:16:53;16.80;76.20
35381;DHT22;21486;51.916;8.378;2022-10-22T15:19:19;16.80;76.80
35381;DHT22;21486;51.916;8.378;2022-10-22T15:21:44;16.80;76.70
35381;DHT22;21486;51.916;8.378;2022-10-22T15:24:10;16.80;76.60
35381;DHT22;21486;51.916;8.378;2022-10-22T15:26:35;16.80;76.40
35381;DHT22;21486;51.916;8.378;2022-10-22T15:29:02;16.80;77.10
35381;DHT22;21486;51.916;8.378;2022-10-22T15:34:12;16.70;76.50
35381;DHT22;21486;51.916;8.378;2022-10-22T15:36:42;16.70;76.80
35381;DHT22;21486;51.916;8.378;2022-10-22T15:39:08;16.70;77.40
35381;DHT22;21486;51.916;8.378;2022-10-22T15:41:34;16.60;78.10
35381;DHT22;21486;51.916;8.378;2022-10-22T15:43:59;16.50;77.80
35381;DHT22;21486;51.916;8.378;2022-10-22T15:46:25;16.50;77.50
35381;DHT22;21486;51.916;8.378;2022-10-22T15:48:52;16.50;78.10
35381;DHT22;21486;51.916;8.378;2022-10-22T15:51:17;16.50;77.40
35381;DHT22;21486;51.916;8.378;2022-10-22T15:53:43;16.40;77.70
35381;DHT22;21486;51.916;8.378;2022-10-22T15:56:14;16.50;78.50
35381;DHT22;21486;51.916;8.378;2022-10-22T15:58:40;16.40;78.20
35381;DHT22;21486;51.916;8.378;2022-10-22T16:01:07;16.40;78.10
35381;DHT22;21486;51.916;8.378;2022-10-22T16:03:33;16.30;78.10
35381;DHT22;21486;51.916;8.378;2022-10-22T16:05:58;16.30;78.20
35381;DHT22;21486;51.916;8.378;2022-10-22T16:08:24;16.40;78.30
35381;DHT22;21486;51.916;8.378;2022-10-22T16:10:50;16.30;78.40
35381;DHT22;21486;51.916;8.378;2022-10-22T16:13:15;16.20;77.90
35381;DHT22;21486;51.916;8.378;2022-10-22T16:15:41;16.20;77.80
35381;DHT22;21486;51.916;8.378;2022-10-22T16:18:06;16.20;78.20
35381;DHT22;21486;51.916;8.378;2022-10-22T16:20:32;16.10;78.30
35381;DHT22;21486;51.916;8.378;2022-10-22T16:23:02;16.10;78.60
35381;DHT22;21486;51.916;8.378;2022-10-22T16:25:27;16.10;78.60
35381;DHT22;21486;51.916;8.378;2022-10-22T16:27:53;15.90;79.20
35381;DHT22;21486;51.916;8.378;2022-10-22T16:30:18;15.90;79.10
35381;DHT22;21486;51.916;8.378;2022-10-22T16:32:44;15.80;79.50
35381;DHT22;21486;51.916;8.378;2022-10-22T16:35:09;15.70;79.80
35381;DHT22;21486;51.916;8.378;2022-10-22T16:37:35;15.60;80.00
35381;DHT22;21486;51.916;8.378;2022-10-22T16:40:00;15.50;80.40
35381;DHT22;21486;51.916;8.378;2022-10-22T16:42:26;15.50;80.20
35381;DHT22;21486;51.916;8.378;2022-10-22T16:44:51;15.40;80.40
35381;DHT22;21486;51.916;8.378;2022-10-22T16:47:17;15.40;80.80
35381;DHT22;21486;51.916;8.378;2022-10-22T16:49:42;15.30;81.10
35381;DHT22;21486;51.916;8.378;2022-10-22T16:52:07;15.30;81.30
35381;DHT22;21486;51.916;8.378;2022-10-22T16:54:33;15.20;81.10
35381;DHT22;21486;51.916;8.378;2022-10-22T16:56:58;15.30;81.40
35381;DHT22;21486;51.916;8.378;2022-10-22T16:59:24;15.30;81.10
35381;DHT22;21486;51.916;8.378;2022-10-22T17:01:49;15.30;81.10
35381;DHT22;21486;51.916;8.378;2022-10-22T17:04:15;15.30;80.80
35381;DHT22;21486;51.916;8.378;2022-10-22T17:06:41;15.20;81.00